createdAt,value
2019-04-04T00:03:58.899Z,17.07
2019-04-04T00:09:07.065Z,18.93
2019-04-04T00:14:15.140Z,19.02
2019-04-04T00:19:36.378Z,20.81
2019-04-04T00:24:23.613Z,24.59
2019-04-04T00:29:43.641Z,24.17
2019-04-04T00:34:31.792Z,27.52
2019-04-04T00:39:40.440Z,31.05
2019-04-04T00:45:00.253Z,27.67
2019-04-04T00:49:47.760Z,32.07
2019-04-04T00:54:54.895Z,31.58
2019-04-04T01:00:16.171Z,32.77
2019-04-04T01:05:16.152Z,31.14
2019-04-04T01:10:04.506Z,31.31
2019-04-04T01:15:11.702Z,34.33
2019-04-04T01:25:20.027Z,40.50
2019-04-04T01:30:41.699Z,46.41
2019-04-04T01:35:27.516Z,44.94
2019-04-04T01:40:48.945Z,44.85
2019-04-04T01:45:36.033Z,46.93
2019-04-04T01:50:44.197Z,44.87
2019-04-04T01:55:52.297Z,43.75
2019-04-04T02:01:00.568Z,42.26
2019-04-04T02:06:08.609Z,42.13
2019-04-04T02:11:29.655Z,42.66
2019-04-04T02:16:17.719Z,42.56
2019-04-04T02:21:28.461Z,41.88
2019-04-04T02:26:46.207Z,39.34
2019-04-04T02:31:34.573Z,42.33
2019-04-04T02:36:41.679Z,37.75
2019-04-04T02:41:50.073Z,38.51
2019-04-04T02:46:57.190Z,33.84
2019-04-04T02:52:05.415Z,31.60
2019-04-04T02:57:13.711Z,30.42
2019-04-04T03:02:21.121Z,31.93
2019-04-04T03:07:42.295Z,29.13
2019-04-04T03:12:43.576Z,30.84
2019-04-04T03:17:43.556Z,31.13
2019-04-04T03:22:31.931Z,31.53
2019-04-04T03:27:53.045Z,29.97
2019-04-04T03:32:41.508Z,28.00
2019-04-04T03:37:48.740Z,27.61
2019-04-04T03:43:09.937Z,27.73
2019-04-04T03:47:58.005Z,28.71
2019-04-04T03:53:18.065Z,30.97
2019-04-04T03:58:06.130Z,31.07
2019-04-04T04:03:14.470Z,28.69
2019-04-04T04:08:22.707Z,31.26
2019-04-04T04:13:30.144Z,31.16
2019-04-04T04:18:53.932Z,30.90
2019-04-04T04:23:37.531Z,32.47
2019-04-04T04:28:58.654Z,30.68
2019-04-04T04:33:45.948Z,29.01
2019-04-04T04:38:59.830Z,33.52
2019-04-04T04:44:05.625Z,29.95
2019-04-04T04:49:11.886Z,31.12
2019-04-04T04:54:32.159Z,31.72
2019-04-04T04:59:20.374Z,31.05
2019-04-04T05:04:40.608Z,32.80
2019-04-04T05:09:27.900Z,30.45
2019-04-04T05:14:47.964Z,32.46
2019-04-04T05:19:50.097Z,31.15
2019-04-04T05:24:36.507Z,32.95
2019-04-04T05:29:44.868Z,31.71
2019-04-04T05:34:51.152Z,32.84
2019-04-04T05:39:59.348Z,31.73
2019-04-04T05:45:06.981Z,32.77
2019-04-04T05:50:16.412Z,32.82
2019-04-04T05:55:23.179Z,35.57
2019-04-04T06:00:43.284Z,33.19
2019-04-04T06:05:31.838Z,33.35
2019-04-04T06:10:50.818Z,33.02
2019-04-04T06:15:51.022Z,35.08
2019-04-04T06:20:39.320Z,37.01
2019-04-04T06:31:04.877Z,38.46
2019-04-04T06:35:52.256Z,35.43
2019-04-04T06:41:00.838Z,36.54
2019-04-04T06:46:06.948Z,39.38
2019-04-04T06:51:27.114Z,40.45
2019-04-04T06:56:31.790Z,39.36
2019-04-04T07:01:28.627Z,42.01
2019-04-04T07:06:16.008Z,46.04
2019-04-04T07:11:23.277Z,45.91
2019-04-04T07:16:30.687Z,47.41
2019-04-04T07:26:43.240Z,54.59
2019-04-04T07:32:02.836Z,55.32
2019-04-04T07:37:03.141Z,58.36
2019-04-04T07:41:50.274Z,50.57
2019-04-04T07:46:58.624Z,51.93
2019-04-04T07:52:06.915Z,49.38
2019-04-04T07:57:17.235Z,45.77
2019-04-04T08:02:22.590Z,46.54
2019-04-04T08:12:48.597Z,44.81
2019-04-04T08:17:49.988Z,40.98
2019-04-04T08:22:50.118Z,39.37
2019-04-04T08:27:38.374Z,38.53
2019-04-04T08:38:03.089Z,41.54
2019-04-04T08:42:51.182Z,38.71
2019-04-04T08:47:59.567Z,35.55
2019-04-04T08:53:07.927Z,31.27
2019-04-04T08:58:15.525Z,28.99
2019-04-04T09:03:22.870Z,25.38
2019-04-04T09:08:30.264Z,27.15
2019-04-04T09:13:50.320Z,25.22
2019-04-04T09:18:38.660Z,24.78
2019-04-04T09:23:45.715Z,24.36
2019-04-04T09:28:53.987Z,20.57
2019-04-04T09:34:14.939Z,18.34
2019-04-04T09:39:03.151Z,14.01
2019-04-04T09:44:11.223Z,14.51
2019-04-04T09:49:32.304Z,14.97
2019-04-04T09:54:20.949Z,15.17
2019-04-04T09:59:32.175Z,13.93
2019-04-04T10:04:42.625Z,13.32
2019-04-04T10:09:42.838Z,12.58
2019-04-04T10:14:31.099Z,13.72
2019-04-04T10:19:38.461Z,14.50
2019-04-04T10:24:45.707Z,13.96
2019-04-04T10:29:53.427Z,13.47
2019-04-04T10:35:01.838Z,14.76
2019-04-04T10:40:10.029Z,14.58
2019-04-04T10:45:30.015Z,12.04
2019-04-04T10:50:17.643Z,12.44
2019-04-04T10:55:24.692Z,13.33
2019-04-04T11:00:45.941Z,11.14
2019-04-04T11:10:37.978Z,12.03
2019-04-04T11:15:45.181Z,10.94
2019-04-04T11:20:52.472Z,11.04
2019-04-04T11:26:12.813Z,10.16
2019-04-04T11:31:00.204Z,8.13
2019-04-04T11:41:09.295Z,6.58
2019-04-04T11:46:16.559Z,7.58
2019-04-04T11:51:23.702Z,6.79
2019-04-04T11:56:31.789Z,6.58
2019-04-04T12:01:52.957Z,6.90
2019-04-04T12:06:53.930Z,6.13
2019-04-04T12:11:42.004Z,5.80
2019-04-04T12:16:50.095Z,5.96
2019-04-04T12:21:58.381Z,5.40
2019-04-04T12:27:08.709Z,6.16
2019-04-04T12:32:16.463Z,5.86
2019-04-04T12:37:24.668Z,6.54
2019-04-04T12:42:44.890Z,6.19
2019-04-04T12:47:32.190Z,8.48
2019-04-04T12:52:39.562Z,7.97
2019-04-04T12:57:59.541Z,6.97
2019-04-04T13:02:48.003Z,8.23
2019-04-04T13:07:55.270Z,7.87
2019-04-04T13:18:04.410Z,9.48
2019-04-04T13:23:13.133Z,9.11
2019-04-04T13:28:20.338Z,9.30
2019-04-04T13:33:40.611Z,10.33
2019-04-04T13:38:27.834Z,12.34
2019-04-04T13:43:47.940Z,8.89
2019-04-04T13:48:36.306Z,8.62
2019-04-04T13:53:44.674Z,8.05
2019-04-04T13:58:52.690Z,9.87
2019-04-04T14:04:13.927Z,6.20
2019-04-04T14:09:02.160Z,5.63
2019-04-04T14:14:23.248Z,3.69
2019-04-04T14:19:24.370Z,3.54
2019-04-04T14:24:24.691Z,5.39
2019-04-04T14:29:27.740Z,4.46
2019-04-04T14:34:25.071Z,4.43
2019-04-04T14:39:13.203Z,11.69
2019-04-04T14:44:20.726Z,13.54
2019-04-04T14:49:40.874Z,6.21
2019-04-04T14:54:41.122Z,4.85
2019-04-04T15:04:33.310Z,20.13
2019-04-04T15:09:53.259Z,14.68
2019-04-04T15:14:54.499Z,24.40
2019-04-04T15:19:41.710Z,12.45
2019-04-04T15:25:02.096Z,5.62
2019-04-04T15:29:49.421Z,4.53
2019-04-04T15:35:09.732Z,5.85
2019-04-04T15:39:57.983Z,5.47
2019-04-04T15:45:05.353Z,4.38
2019-04-04T15:50:12.479Z,5.90
2019-04-04T15:55:20.662Z,6.03
2019-04-04T16:00:41.753Z,6.00
2019-04-04T16:05:42.039Z,4.20
2019-04-04T16:15:45.723Z,3.80
2019-04-04T16:20:46.684Z,3.90
2019-04-04T16:25:54.523Z,3.02
2019-04-04T16:30:55.615Z,3.27
2019-04-04T16:35:55.702Z,2.95
2019-04-04T16:40:56.815Z,5.40
2019-04-04T16:45:57.239Z,4.96
2019-04-04T16:50:57.244Z,6.37
2019-04-04T16:55:45.522Z,2.75
2019-04-04T17:00:52.624Z,3.64
2019-04-04T17:06:13.929Z,3.62
2019-04-04T17:11:13.957Z,2.81
2019-04-04T17:16:02.133Z,3.87
2019-04-04T17:21:12.284Z,2.71
2019-04-04T17:31:32.152Z,4.55
2019-04-04T17:36:21.451Z,3.88
2019-04-04T17:46:44.791Z,5.44
2019-04-04T17:51:44.679Z,4.30
2019-04-04T17:56:45.708Z,6.30
2019-04-04T18:01:46.656Z,3.36
2019-04-04T18:06:47.700Z,5.45
2019-04-04T18:11:35.949Z,3.04
2019-04-04T18:16:43.280Z,5.18
2019-04-04T18:22:03.389Z,4.29
2019-04-04T18:27:03.786Z,3.71
2019-04-04T18:32:03.893Z,10.21
2019-04-04T18:37:04.520Z,13.08
2019-04-04T18:42:04.360Z,12.81
2019-04-04T18:46:51.738Z,9.53
2019-04-04T18:57:02.669Z,10.62
2019-04-04T19:02:22.788Z,9.74
2019-04-04T19:07:22.995Z,7.80
2019-04-04T19:12:23.205Z,12.06
2019-04-04T19:17:23.450Z,10.63
2019-04-04T19:22:10.532Z,10.64
2019-04-04T19:27:18.885Z,17.64
2019-04-04T19:32:25.937Z,15.83
2019-04-04T19:37:54.428Z,13.32
2019-04-04T19:42:34.442Z,10.47
2019-04-04T19:47:41.664Z,11.99
2019-04-04T19:48:57.280Z,12.31
2019-04-04T19:54:04.396Z,13.24
2019-04-04T19:59:25.533Z,10.57
2019-04-04T20:04:13.753Z,11.09
2019-04-04T20:09:33.962Z,8.98
2019-04-04T20:14:35.148Z,15.94
2019-04-04T20:19:36.448Z,13.42
2019-04-04T20:24:24.854Z,9.66
2019-04-04T20:29:46.221Z,12.75
2019-04-04T20:34:46.374Z,12.39
2019-04-04T20:39:46.560Z,12.02
2019-04-04T20:44:34.815Z,6.27
2019-04-04T20:49:42.900Z,5.32
2019-04-04T20:54:50.948Z,6.47
2019-04-04T21:00:00.487Z,6.38
2019-04-04T21:05:07.650Z,5.47
2019-04-04T21:15:29.847Z,3.89
2019-04-04T21:20:30.091Z,4.18
2019-04-04T21:25:18.265Z,5.04
2019-04-04T21:30:25.723Z,5.14
2019-04-04T21:35:46.804Z,4.74
2019-04-04T21:40:34.242Z,4.94
2019-04-04T21:45:42.455Z,6.51
2019-04-04T21:50:52.052Z,4.49
2019-04-04T21:55:59.378Z,5.34
2019-04-04T22:01:06.665Z,5.27
2019-04-04T22:06:27.655Z,6.77
2019-04-04T22:11:15.916Z,8.26
2019-04-04T22:16:26.194Z,4.63
2019-04-04T22:21:37.404Z,7.32
2019-04-04T22:26:24.579Z,12.98
2019-04-04T22:31:45.762Z,11.84
2019-04-04T22:36:32.996Z,15.54
2019-04-04T22:41:40.223Z,13.87
2019-04-04T22:46:48.414Z,14.50
2019-04-04T22:51:55.589Z,13.70
2019-04-04T22:57:16.551Z,14.27
2019-04-04T23:02:04.846Z,13.75
2019-04-04T23:07:12.117Z,15.42
2019-04-04T23:12:20.515Z,18.09
2019-04-04T23:17:27.761Z,18.45
2019-04-04T23:22:35.001Z,22.09
2019-04-04T23:27:55.985Z,18.82
2019-04-04T23:32:57.463Z,17.52
2019-04-04T23:37:45.878Z,13.17
2019-04-04T23:42:53.139Z,8.99
2019-04-04T23:48:14.281Z,11.23
2019-04-04T23:53:14.764Z,10.31
2019-04-04T23:58:01.910Z,9.86
